Time;durP1;ratioP1;P1;durP2;ratioP2;P2;SDS_P1;SDS_P2;PMS_P1;PMS_P2;Temp;Humidity;BMP_temperature;BMP_pressure;BME280_temperature;BME280_humidity;BME280_pressure;Samples;Min_cycle;Max_cycle;Signal;HPM_P1;HPM_P2
2022/09/19 00:02:02;;;;;;;16.02;2.55;;;12.30;99.90;;;;;;5020526;28;20559;-80
2022/09/19 00:04:31;;;;;;;12.55;1.80;;;12.00;99.90;;;;;;5008044;28;20040;-82
2022/09/19 00:06:57;;;;;;;17.80;2.40;;;11.90;99.90;;;;;;5006052;28;20115;-82
2022/09/19 00:09:30;;;;;;;19.92;2.67;;;12.00;99.90;;;;;;5026680;28;20037;-82
2022/09/19 00:11:56;;;;;;;16.02;2.50;;;12.00;99.90;;;;;;5024931;28;20033;-82
2022/09/19 00:14:25;;;;;;;17.77;2.67;;;12.10;99.90;;;;;;5007193;28;20047;-82
2022/09/19 00:16:56;;;;;;;15.88;2.40;;;12.40;99.90;;;;;;5020642;28;20047;-81
2022/09/19 00:19:22;;;;;;;18.00;2.75;;;12.20;99.90;;;;;;5003543;28;20063;-82
2022/09/19 00:21:52;;;;;;;16.08;2.15;;;12.20;99.90;;;;;;5027258;28;20607;-82
2022/09/19 00:27:05;;;;;;;9.32;1.50;;;12.00;99.90;;;;;;5044048;28;20061;-81
2022/09/19 00:29:35;;;;;;;13.27;1.60;;;12.00;99.90;;;;;;5008634;28;20084;-82
2022/09/19 00:32:05;;;;;;;12.23;2.03;;;12.00;99.90;;;;;;5008267;28;20067;-81
2022/09/19 00:34:31;;;;;;;17.38;2.38;;;11.80;99.90;;;;;;5004575;28;20076;-82
2022/09/19 00:36:57;;;;;;;17.90;2.40;;;11.80;99.90;;;;;;5011387;28;20368;-82
2022/09/19 00:39:23;;;;;;;19.98;2.78;;;11.80;99.90;;;;;;5026350;28;20048;-82
2022/09/19 00:41:49;;;;;;;19.67;2.95;;;11.80;99.90;;;;;;5001798;28;20077;-81
2022/09/19 00:44:26;;;;;;;14.57;2.38;;;11.90;99.90;;;;;;5000864;28;20087;-82
2022/09/19 00:47:05;;;;;;;21.63;2.80;;;12.00;99.90;;;;;;5008436;28;21246;-80
2022/09/19 00:49:37;;;;;;;21.73;2.33;;;12.40;99.90;;;;;;5040765;28;20042;-82
2022/09/19 00:52:07;;;;;;;27.65;3.40;;;12.30;99.90;;;;;;5007987;28;20036;-80
2022/09/19 00:54:44;;;;;;;23.85;3.30;;;12.20;99.90;;;;;;5006508;28;20053;-82
2022/09/19 00:57:13;;;;;;;19.63;2.50;;;12.20;99.90;;;;;;5009197;28;20065;-82
2022/09/19 00:59:43;;;;;;;23.40;3.65;;;12.30;99.90;;;;;;5045836;28;20048;-81
2022/09/19 01:02:09;;;;;;;24.83;4.10;;;12.20;99.90;;;;;;5048919;28;20032;-80
2022/09/19 01:04:35;;;;;;;28.10;3.40;;;12.60;99.90;;;;;;5051784;28;20036;-80
2022/09/19 01:07:30;;;;;;;26.33;3.33;;;12.30;99.90;;;;;;5051350;28;20068;-81
2022/09/19 01:10:07;;;;;;;21.73;2.70;;;12.30;99.90;;;;;;5007925;28;20057;-81
2022/09/19 01:13:04;;;;;;;24.00;2.78;;;12.40;99.90;;;;;;5006709;28;20048;-81
2022/09/19 01:15:51;;;;;;;20.98;2.55;;;12.50;99.90;;;;;;5037359;28;20050;-83
2022/09/19 01:18:21;;;;;;;18.83;2.35;;;12.70;99.90;;;;;;5007826;28;20950;-82
2022/09/19 01:24:19;;;;;;;21.88;2.40;;;12.30;99.90;;;;;;5036070;28;20048;-82
2022/09/19 01:27:24;;;;;;;16.45;2.42;;;12.20;99.90;;;;;;5003788;28;20094;-82
2022/09/19 01:29:54;;;;;;;11.20;1.80;;;12.20;99.90;;;;;;5000480;28;20097;-82
2022/09/19 01:32:26;;;;;;;12.32;1.60;;;12.40;99.90;;;;;;5007492;28;20037;-82
2022/09/19 01:34:57;;;;;;;14.85;1.88;;;12.10;99.90;;;;;;5024578;28;20511;-81
2022/09/19 01:37:42;;;;;;;17.23;1.85;;;12.10;99.90;;;;;;5042508;28;20049;-81
2022/09/19 01:40:13;;;;;;;14.40;2.15;;;12.10;99.90;;;;;;5026915;28;20396;-82
2022/09/19 01:42:56;;;;;;;22.75;2.85;;;12.10;99.90;;;;;;5010612;28;20060;-82
2022/09/19 01:45:32;;;;;;;17.20;2.25;;;12.10;99.90;;;;;;5025430;28;20052;-82
2022/09/19 01:48:01;;;;;;;21.45;2.40;;;12.30;99.90;;;;;;5029372;28;20141;-83
2022/09/19 01:51:03;;;;;;;17.05;2.95;;;12.30;99.90;;;;;;5028220;28;20076;-83
2022/09/19 01:53:53;;;;;;;25.60;3.17;;;12.20;99.90;;;;;;5009389;28;20383;-83
2022/09/19 01:56:41;;;;;;;17.52;2.33;;;12.20;99.90;;;;;;5026450;28;20480;-83
2022/09/19 01:59:30;;;;;;;21.23;2.75;;;12.20;99.90;;;;;;5012666;28;20045;-81
2022/09/19 02:02:26;;;;;;;22.83;2.78;;;12.20;99.90;;;;;;5008144;28;20492;-83
2022/09/19 02:05:08;;;;;;;19.70;2.70;;;12.20;99.90;;;;;;5003792;28;20052;-81
2022/09/19 02:08:02;;;;;;;21.65;3.00;;;12.30;99.90;;;;;;5035945;28;20041;-81
2022/09/19 02:10:44;;;;;;;27.25;3.13;;;12.30;99.90;;;;;;5024218;28;20040;-82
2022/09/19 02:13:11;;;;;;;24.30;2.97;;;12.20;99.90;;;;;;5004312;28;20116;-83
2022/09/19 02:15:39;;;;;;;22.00;2.95;;;12.20;99.90;;;;;;5000963;28;20084;-82
2022/09/19 02:18:13;;;;;;;20.15;2.78;;;12.30;99.90;;;;;;5018779;28;20032;-82
2022/09/19 02:20:41;;;;;;;18.40;2.58;;;12.20;99.90;;;;;;5005155;28;20136;-82
2022/09/19 02:23:20;;;;;;;21.25;2.45;;;12.20;99.90;;;;;;5006131;28;20132;-81
2022/09/19 02:25:49;;;;;;;21.63;2.63;;;12.10;99.90;;;;;;5003452;28;21781;-82
2022/09/19 02:28:21;;;;;;;13.98;2.08;;;12.20;99.90;;;;;;5020635;28;20528;-81
2022/09/19 02:30:48;;;;;;;13.63;1.90;;;12.50;99.90;;;;;;5002371;28;20036;-82
2022/09/19 02:33:15;;;;;;;14.02;1.75;;;12.30;99.90;;;;;;5019149;28;20041;-81
2022/09/19 02:35:54;;;;;;;18.08;1.98;;;12.20;99.90;;;;;;5004656;28;21146;-81
2022/09/19 02:38:31;;;;;;;17.48;2.13;;;12.20;99.90;;;;;;5021317;28;20072;-80
2022/09/19 02:41:07;;;;;;;16.00;2.70;;;12.10;99.90;;;;;;5006368;28;20032;-82
2022/09/19 02:43:48;;;;;;;15.25;2.22;;;12.10;99.90;;;;;;5000832;28;20557;-82
2022/09/19 02:46:30;;;;;;;19.85;2.67;;;12.10;99.90;;;;;;5005813;28;20068;-81
2022/09/19 02:49:18;;;;;;;18.67;2.40;;;12.10;99.90;;;;;;5002465;28;20043;-81
2022/09/19 02:51:50;;;;;;;18.58;2.30;;;12.10;99.90;;;;;;5036071;28;20131;-82
2022/09/19 02:54:30;;;;;;;19.45;2.25;;;12.10;99.90;;;;;;5021143;28;20468;-82
2022/09/19 02:57:01;;;;;;;14.52;2.38;;;12.10;99.90;;;;;;5041136;28;20957;-81
2022/09/19 02:59:33;;;;;;;19.10;2.45;;;12.30;99.90;;;;;;5021365;28;20107;-81
2022/09/19 03:02:03;;;;;;;16.95;2.33;;;12.00;99.90;;;;;;5001445;28;20041;-83
2022/09/19 03:04:34;;;;;;;20.88;2.50;;;12.30;99.90;;;;;;5001815;28;20055;-83
2022/09/19 03:07:13;;;;;;;13.10;2.10;;;12.00;99.90;;;;;;5002831;28;20122;-81
2022/09/19 03:09:50;;;;;;;16.77;2.85;;;12.20;99.90;;;;;;5011799;28;20040;-80
2022/09/19 03:12:25;;;;;;;14.40;2.33;;;12.00;99.90;;;;;;5029653;28;20044;-82
2022/09/19 03:14:55;;;;;;;;;;;12.30;99.90;;;;;;5010007;28;20103;-82
2022/09/19 03:17:43;;;;;;;21.00;2.97;;;12.00;99.90;;;;;;5015522;28;20255;-82
2022/09/19 03:20:12;;;;;;;18.48;3.03;;;12.00;99.90;;;;;;5029074;28;20036;-82
2022/09/19 03:22:41;;;;;;;14.13;2.35;;;12.00;99.90;;;;;;5008874;28;20056;-81
2022/09/19 03:25:09;;;;;;;26.35;3.08;;;12.00;99.90;;;;;;5015274;28;20044;-82
2022/09/19 03:27:38;;;;;;;18.48;3.10;;;12.00;99.90;;;;;;5012885;28;20060;-84
2022/09/19 03:30:09;;;;;;;17.48;2.33;;;12.10;99.90;;;;;;5033033;28;20045;-81
2022/09/19 03:32:37;;;;;;;21.40;2.90;;;12.00;99.90;;;;;;5018266;28;20424;-83
2022/09/19 03:35:04;;;;;;;25.98;3.38;;;12.10;99.90;;;;;;5014641;28;20451;-83
2022/09/19 03:37:33;;;;;;;24.95;2.97;;;12.10;99.90;;;;;;5036054;28;20041;-82
2022/09/19 03:40:00;;;;;;;16.80;2.60;;;12.30;99.90;;;;;;5028048;28;20749;-82
2022/09/19 03:42:27;;;;;;;15.90;2.45;;;12.30;99.90;;;;;;5029350;28;20055;-82
2022/09/19 03:44:53;;;;;;;23.10;2.58;;;12.30;99.90;;;;;;5008648;28;20069;-82
2022/09/19 03:47:21;;;;;;;24.98;3.17;;;12.30;99.90;;;;;;5033192;28;20032;-82
2022/09/19 03:49:49;;;;;;;20.13;3.58;;;12.40;99.90;;;;;;5029671;28;20372;-82
2022/09/19 03:52:17;;;;;;;28.17;3.60;;;12.30;99.90;;;;;;5013942;28;20041;-81
2022/09/19 03:54:44;;;;;;;23.08;2.95;;;12.40;99.90;;;;;;5020239;28;20083;-80
2022/09/19 03:57:10;;;;;;;29.95;3.83;;;12.40;99.90;;;;;;5026550;28;20373;-82
2022/09/19 03:59:39;;;;;;;22.48;3.45;;;12.40;99.90;;;;;;5026484;28;20048;-81
2022/09/19 04:02:06;;;;;;;28.60;3.63;;;12.60;99.90;;;;;;5026579;28;20045;-81
2022/09/19 04:04:32;;;;;;;24.05;3.67;;;12.30;99.90;;;;;;5025017;28;20055;-82
2022/09/19 04:06:58;;;;;;;30.10;4.05;;;12.30;99.90;;;;;;5009240;28;20068;-81
2022/09/19 04:09:25;;;;;;;29.90;4.03;;;12.40;99.90;;;;;;5008647;28;20072;-82
2022/09/19 04:11:56;;;;;;;29.30;3.25;;;12.30;99.90;;;;;;5023886;28;20032;-83
2022/09/19 04:14:22;;;;;;;21.73;2.90;;;12.40;99.90;;;;;;5046213;28;20087;-83
2022/09/19 04:16:48;;;;;;;21.90;2.70;;;12.20;99.90;;;;;;5022560;28;20051;-80
2022/09/19 04:19:15;;;;;;;24.25;3.10;;;12.40;99.90;;;;;;5004082;28;20045;-82
2022/09/19 04:21:41;;;;;;;13.70;2.53;;;12.40;99.90;;;;;;5010516;28;20045;-82
2022/09/19 04:24:12;;;;;;;19.48;2.50;;;12.40;99.90;;;;;;5007321;28;20053;-81
2022/09/19 04:26:38;;;;;;;16.23;2.00;;;12.30;99.90;;;;;;5008855;28;20037;-81
2022/09/19 04:29:06;;;;;;;16.85;2.28;;;12.20;99.90;;;;;;5027902;28;20112;-82
2022/09/19 04:31:37;;;;;;;10.52;1.92;;;12.20;99.90;;;;;;5019719;28;20132;-82
2022/09/19 04:34:06;;;;;;;18.38;2.72;;;12.10;99.90;;;;;;5024376;28;20449;-82
2022/09/19 04:36:33;;;;;;;18.35;2.65;;;12.10;99.90;;;;;;5008095;28;20344;-82
2022/09/19 04:39:03;;;;;;;19.48;2.80;;;12.20;99.90;;;;;;5008845;28;20087;-82
2022/09/19 04:41:33;;;;;;;20.90;2.85;;;12.20;99.90;;;;;;5011786;28;20052;-81
2022/09/19 04:44:00;;;;;;;20.15;2.90;;;12.30;99.90;;;;;;5042985;28;20041;-82
2022/09/19 04:46:26;;;;;;;24.65;2.97;;;12.30;99.90;;;;;;5023585;28;20120;-82
2022/09/19 04:48:54;;;;;;;28.02;3.22;;;12.40;99.90;;;;;;5010351;28;20124;-82
2022/09/19 04:51:20;;;;;;;25.85;3.55;;;12.60;99.90;;;;;;5030031;28;20088;-82
2022/09/19 04:53:46;;;;;;;28.60;3.65;;;12.40;99.90;;;;;;5012284;28;20037;-82
2022/09/19 04:56:12;;;;;;;26.42;3.45;;;12.60;99.90;;;;;;5027938;28;20121;-81
2022/09/19 04:58:40;;;;;;;30.33;4.28;;;12.40;99.90;;;;;;5008496;28;20041;-82
2022/09/19 05:01:07;;;;;;;36.65;3.92;;;12.60;99.90;;;;;;5008239;28;20086;-82
2022/09/19 05:03:33;;;;;;;29.88;3.35;;;12.40;99.90;;;;;;5025752;28;20101;-82
2022/09/19 05:06:00;;;;;;;23.02;3.13;;;12.40;99.90;;;;;;5012084;28;20049;-83
2022/09/19 05:08:28;;;;;;;30.65;3.70;;;12.40;99.90;;;;;;5022384;28;20060;-81
2022/09/19 05:10:55;;;;;;;33.20;4.22;;;12.50;99.90;;;;;;5021651;28;20032;-81
2022/09/19 05:13:23;;;;;;;26.35;3.75;;;12.40;99.90;;;;;;5015341;28;20051;-81
2022/09/19 05:15:51;;;;;;;27.23;3.67;;;12.50;99.90;;;;;;5031477;28;20389;-82
2022/09/19 05:18:19;;;;;;;22.52;3.95;;;12.50;99.90;;;;;;5009314;28;20107;-82
2022/09/19 05:20:44;;;;;;;37.53;4.45;;;12.40;99.90;;;;;;5014998;28;20055;-82
2022/09/19 05:23:10;;;;;;;21.17;3.65;;;12.40;99.90;;;;;;5034599;28;20472;-82
2022/09/19 05:25:40;;;;;;;19.73;3.35;;;12.60;99.90;;;;;;5028184;28;20037;-81
2022/09/19 05:28:09;;;;;;;25.02;3.25;;;12.50;99.90;;;;;;5009738;28;20138;-82
2022/09/19 05:30:37;;;;;;;20.77;3.20;;;12.50;99.90;;;;;;4999079;28;20112;-82
2022/09/19 05:33:06;;;;;;;22.40;3.30;;;12.80;99.90;;;;;;5035022;28;20099;-82
2022/09/19 05:35:32;;;;;;;21.15;3.15;;;12.70;99.90;;;;;;5014075;28;20051;-82
2022/09/19 05:37:58;;;;;;;24.33;3.47;;;12.60;99.90;;;;;;5005206;28;20049;-81
2022/09/19 05:40:25;;;;;;;24.10;2.58;;;12.70;99.90;;;;;;5012644;28;20048;-82
2022/09/19 05:42:53;;;;;;;18.65;2.88;;;12.80;99.90;;;;;;5031103;28;20108;-80
2022/09/19 05:45:20;;;;;;;22.52;2.85;;;12.70;99.90;;;;;;5016364;28;20182;-81
2022/09/19 05:47:46;;;;;;;15.40;2.13;;;12.70;99.90;;;;;;5007975;28;20063;-81
2022/09/19 05:50:14;;;;;;;19.38;3.13;;;12.60;99.90;;;;;;5024249;28;20091;-81
2022/09/19 05:55:29;;;;;;;17.60;2.60;;;12.60;99.90;;;;;;5026423;28;20049;-81
2022/09/19 05:57:57;;;;;;;17.15;2.70;;;12.50;99.90;;;;;;5013920;28;20053;-82
2022/09/19 06:00:25;;;;;;;21.92;3.03;;;12.40;99.90;;;;;;5027114;28;20142;-80
2022/09/19 06:03:01;;;;;;;21.20;2.78;;;12.30;99.90;;;;;;5011222;28;20156;-81
2022/09/19 06:05:32;;;;;;;18.52;2.33;;;12.30;99.90;;;;;;5027487;28;20045;-79
2022/09/19 06:07:59;;;;;;;16.42;2.70;;;12.30;99.90;;;;;;5006285;28;20024;-80
2022/09/19 06:10:26;;;;;;;24.48;2.88;;;12.40;99.90;;;;;;5024267;28;20052;-83
2022/09/19 06:12:55;;;;;;;29.70;2.92;;;12.40;99.90;;;;;;5006838;28;20134;-79
2022/09/19 06:15:21;;;;;;;16.70;2.50;;;12.60;99.90;;;;;;5041825;28;20538;-82
2022/09/19 06:17:53;;;;;;;17.90;2.67;;;12.60;99.90;;;;;;5003313;28;20053;-80
2022/09/19 06:20:19;;;;;;;18.17;2.40;;;12.70;99.90;;;;;;5022765;28;20503;-82
2022/09/19 06:22:44;;;;;;;23.23;2.80;;;12.90;99.90;;;;;;5002848;28;20106;-82
2022/09/19 06:25:11;;;;;;;12.85;2.10;;;13.10;99.90;;;;;;5013461;28;20130;-80
2022/09/19 06:27:37;;;;;;;19.65;2.47;;;13.10;99.90;;;;;;5013050;28;20052;-81
2022/09/19 06:30:05;;;;;;;13.32;2.15;;;12.90;99.90;;;;;;5018268;28;20045;-81
2022/09/19 06:32:31;;;;;;;11.77;2.25;;;12.80;99.90;;;;;;5000401;28;20049;-82
2022/09/19 06:34:57;;;;;;;13.40;1.90;;;12.80;99.90;;;;;;5016321;28;20586;-82
2022/09/19 06:37:23;;;;;;;14.65;2.50;;;12.60;99.90;;;;;;5006034;28;20255;-83
2022/09/19 06:39:48;;;;;;;17.38;2.72;;;12.70;99.90;;;;;;4991847;28;20054;-81
2022/09/19 06:42:15;;;;;;;16.50;3.00;;;12.70;99.90;;;;;;5007090;28;20046;-81
2022/09/19 06:44:40;;;;;;;18.52;3.40;;;12.80;99.90;;;;;;5020864;28;20052;-82
2022/09/19 06:47:06;;;;;;;19.83;2.65;;;12.90;99.90;;;;;;5023146;28;20040;-82
2022/09/19 06:49:33;;;;;;;19.90;3.28;;;12.80;99.90;;;;;;5039866;28;21387;-81
2022/09/19 06:51:58;;;;;;;18.25;2.60;;;12.90;99.90;;;;;;5038987;28;20357;-81
2022/09/19 06:54:25;;;;;;;16.77;2.58;;;12.90;99.90;;;;;;5025634;28;20132;-81
2022/09/19 06:56:51;;;;;;;21.23;2.35;;;13.20;99.90;;;;;;5003588;28;20049;-81
2022/09/19 06:59:18;;;;;;;21.85;2.40;;;13.00;99.90;;;;;;5010872;28;20615;-82
2022/09/19 07:01:45;;;;;;;14.40;2.50;;;12.90;99.90;;;;;;5014751;28;20059;-82
2022/09/19 07:04:12;;;;;;;15.35;2.40;;;12.90;99.90;;;;;;5032396;28;20056;-82
2022/09/19 07:06:38;;;;;;;18.27;2.65;;;13.00;99.90;;;;;;5015549;28;20457;-82
2022/09/19 07:09:04;;;;;;;10.30;2.00;;;12.90;99.90;;;;;;5031058;28;20049;-81
2022/09/19 07:11:30;;;;;;;21.30;3.20;;;13.00;99.90;;;;;;5017029;28;20397;-81
2022/09/19 07:13:56;;;;;;;25.27;2.85;;;12.90;99.90;;;;;;5019820;28;20056;-82
2022/09/19 07:16:22;;;;;;;25.17;2.75;;;13.00;99.90;;;;;;5034256;28;20061;-81
2022/09/19 07:18:48;;;;;;;20.48;3.03;;;13.00;99.90;;;;;;5033815;28;20049;-81
2022/09/19 07:21:14;;;;;;;15.57;2.92;;;13.20;99.90;;;;;;5032506;28;20084;-80
2022/09/19 07:23:39;;;;;;;27.90;4.22;;;13.10;99.90;;;;;;5019797;28;20045;-81
2022/09/19 07:26:05;;;;;;;24.50;3.72;;;13.20;99.90;;;;;;5002348;28;20059;-81
2022/09/19 07:28:31;;;;;;;24.67;3.53;;;13.30;99.90;;;;;;5026300;28;20048;-82
2022/09/19 07:30:59;;;;;;;23.35;3.10;;;13.50;99.90;;;;;;5025373;28;20431;-81
2022/09/19 07:33:25;;;;;;;18.23;2.50;;;13.60;99.90;;;;;;5024957;28;20033;-82
2022/09/19 07:35:53;;;;;;;14.50;2.17;;;13.80;99.90;;;;;;5024642;28;20040;-81
2022/09/19 07:38:20;;;;;;;18.33;2.65;;;13.90;99.90;;;;;;5028832;28;20040;-81
2022/09/19 07:40:46;;;;;;;20.92;3.20;;;14.20;99.90;;;;;;5031228;28;20140;-82
2022/09/19 07:43:13;;;;;;;18.65;2.50;;;13.90;99.90;;;;;;5022381;28;20040;-82
2022/09/19 07:45:44;;;;;;;11.77;1.73;;;13.70;99.90;;;;;;4998829;28;20099;-81
2022/09/19 07:48:10;;;;;;;11.15;2.17;;;13.10;99.90;;;;;;5008468;28;20172;-80
2022/09/19 07:50:36;;;;;;;14.77;2.38;;;12.90;99.90;;;;;;5034083;28;20397;-80
2022/09/19 07:53:24;;;;;;;18.42;2.63;;;12.80;99.90;;;;;;5029903;28;20051;-80
2022/09/19 07:55:54;;;;;;;20.83;3.05;;;12.80;99.90;;;;;;5031296;28;20056;-80
2022/09/19 07:58:22;;;;;;;19.10;3.17;;;12.80;99.90;;;;;;5035015;28;20418;-81
2022/09/19 08:00:49;;;;;;;24.10;4.28;;;12.90;99.90;;;;;;5016822;28;20045;-80
2022/09/19 08:03:17;;;;;;;26.15;4.47;;;12.80;99.90;;;;;;5021567;28;20677;-80
2022/09/19 08:05:46;;;;;;;22.50;3.35;;;12.90;99.90;;;;;;5019665;28;20537;-80
2022/09/19 08:08:14;;;;;;;22.60;2.95;;;12.90;99.90;;;;;;5017831;28;20464;-81
2022/09/19 08:10:41;;;;;;;22.05;3.15;;;13.00;99.90;;;;;;5010414;28;20045;-81
2022/09/19 08:13:08;;;;;;;28.23;2.97;;;13.00;99.90;;;;;;5017181;28;20050;-81
2022/09/19 08:15:35;;;;;;;20.60;2.78;;;13.10;99.90;;;;;;5032346;28;20374;-81
2022/09/19 08:18:12;;;;;;;26.58;3.85;;;13.30;99.90;;;;;;5018065;28;20061;-81
2022/09/19 08:20:37;;;;;;;24.48;3.53;;;13.50;99.90;;;;;;4999438;28;20469;-80
2022/09/19 08:23:12;;;;;;;18.05;2.92;;;13.70;99.90;;;;;;5025303;28;20060;-80
2022/09/19 08:25:42;;;;;;;25.13;3.63;;;14.00;99.90;;;;;;5033298;28;20056;-80
2022/09/19 08:28:09;;;;;;;20.58;3.15;;;14.10;99.90;;;;;;5034509;28;20377;-81
2022/09/19 08:30:35;;;;;;;21.33;3.05;;;14.20;99.90;;;;;;5033281;28;20037;-80
2022/09/19 08:33:02;;;;;;;25.13;2.83;;;14.30;99.90;;;;;;5018085;28;20052;-81
2022/09/19 08:35:29;;;;;;;32.38;4.50;;;14.40;99.90;;;;;;5031540;28;20071;-81
2022/09/19 08:38:00;;;;;;;20.48;3.10;;;14.50;99.90;;;;;;5017004;28;20512;-80
2022/09/19 08:40:26;;;;;;;23.02;2.92;;;14.60;99.90;;;;;;5016146;28;20496;-80
2022/09/19 08:43:16;;;;;;;20.50;2.70;;;14.60;99.90;;;;;;5005835;28;20060;-80
2022/09/19 08:46:10;;;;;;;16.60;2.35;;;14.70;99.90;;;;;;5008394;28;20045;-80
2022/09/19 08:48:53;;;;;;;15.75;2.30;;;14.70;99.90;;;;;;5017322;28;20061;-80
2022/09/19 08:51:26;;;;;;;28.58;2.60;;;14.80;99.90;;;;;;5026387;28;20053;-82
2022/09/19 08:54:02;;;;;;;12.85;2.20;;;14.80;99.90;;;;;;5005244;28;20052;-80
2022/09/19 08:56:29;;;;;;;17.30;2.17;;;14.90;99.90;;;;;;5008462;28;20485;-80
2022/09/19 08:59:01;;;;;;;17.63;2.30;;;15.00;99.90;;;;;;5021627;28;20128;-78
2022/09/19 09:01:36;;;;;;;18.88;2.40;;;15.00;99.90;;;;;;5027236;28;20053;-79
2022/09/19 09:04:30;;;;;;;16.65;2.30;;;15.10;99.90;;;;;;5048493;28;20049;-80
2022/09/19 09:07:14;;;;;;;21.25;2.70;;;15.20;99.90;;;;;;5011262;28;20040;-81
2022/09/19 09:10:07;;;;;;;16.63;3.05;;;15.30;99.90;;;;;;5031273;28;20120;-80
2022/09/19 09:12:58;;;;;;;19.27;2.75;;;15.60;99.90;;;;;;5008295;28;20050;-80
2022/09/19 09:16:06;;;;;;;20.60;2.90;;;15.80;99.90;;;;;;5018937;28;20066;-81
2022/09/19 09:19:17;;;;;;;22.17;3.55;;;15.80;99.90;;;;;;5029008;28;20188;-81
2022/09/19 09:22:02;;;;;;;22.77;3.13;;;15.70;99.90;;;;;;4992618;28;20493;-80
2022/09/19 09:24:33;;;;;;;21.95;3.67;;;15.60;99.90;;;;;;5001435;28;20080;-82
2022/09/19 09:27:01;;;;;;;12.35;2.40;;;15.50;99.90;;;;;;4990306;28;20107;-80
2022/09/19 09:29:47;;;;;;;14.18;2.78;;;15.50;99.90;;;;;;5005555;28;20057;-80
2022/09/19 09:32:32;;;;;;;22.85;2.92;;;15.70;99.90;;;;;;4986632;28;20041;-81
2022/09/19 09:35:18;;;;;;;12.43;2.35;;;15.90;99.90;;;;;;4979374;28;20064;-83
2022/09/19 09:37:54;;;;;;;11.00;1.92;;;15.40;99.90;;;;;;4984607;28;20053;-82
2022/09/19 09:43:43;;;;;;;16.88;2.45;;;13.70;99.90;;;;;;4995962;28;20049;-80
2022/09/19 09:46:15;;;;;;;13.88;2.58;;;13.00;99.90;;;;;;4981322;28;20177;-81
2022/09/19 09:48:40;;;;;;;16.02;2.50;;;12.90;99.90;;;;;;4984628;28;20041;-80
2022/09/19 09:51:19;;;;;;;15.20;2.53;;;13.00;99.90;;;;;;4982736;28;20118;-82
2022/09/19 09:53:53;;;;;;;18.70;2.53;;;12.90;99.90;;;;;;4974598;28;20052;-79
2022/09/19 09:56:44;;;;;;;17.90;2.92;;;13.00;99.90;;;;;;4983598;28;20050;-82
2022/09/19 10:05:36;;;;;;;15.55;2.67;;;13.00;99.90;;;;;;4948651;28;20082;-80
2022/09/19 10:08:43;;;;;;;10.60;2.17;;;13.10;99.90;;;;;;4962144;28;20043;-80
2022/09/19 10:11:21;;;;;;;17.92;3.22;;;13.20;99.90;;;;;;4928832;28;20181;-82
2022/09/19 10:14:01;;;;;;;11.75;3.22;;;13.40;99.90;;;;;;4946002;28;20050;-83
2022/09/19 10:16:31;;;;;;;15.85;3.08;;;13.50;99.90;;;;;;4951035;28;20089;-82
2022/09/19 10:19:07;;;;;;;18.55;3.35;;;13.80;99.90;;;;;;4935886;28;20115;-79
2022/09/19 10:21:32;;;;;;;23.13;3.75;;;13.80;99.90;;;;;;4958004;28;20047;-80
2022/09/19 10:24:00;;;;;;;19.63;3.28;;;13.90;99.90;;;;;;4972103;28;20077;-81
2022/09/19 10:26:29;;;;;;;17.63;3.53;;;13.90;99.90;;;;;;4947939;28;20478;-80
2022/09/19 10:29:00;;;;;;;18.52;2.95;;;14.00;99.90;;;;;;4985786;28;20465;-81
2022/09/19 10:31:35;;;;;;;18.58;2.90;;;14.30;99.90;;;;;;4968752;28;20045;-79
2022/09/19 10:34:06;;;;;;;13.95;2.42;;;14.60;99.90;;;;;;4961199;28;20051;-80
2022/09/19 10:36:46;;;;;;;15.15;2.00;;;15.00;99.90;;;;;;4960692;28;20203;-79
2022/09/19 10:39:14;;;;;;;16.85;2.70;;;15.00;99.90;;;;;;4998553;28;20076;-80
2022/09/19 10:41:42;;;;;;;13.20;2.63;;;15.10;99.90;;;;;;5034019;28;20096;-80
2022/09/19 10:44:24;;;;;;;14.55;2.97;;;15.20;99.90;;;;;;5003250;28;20038;-80
2022/09/19 10:46:58;;;;;;;12.95;1.80;;;15.20;99.90;;;;;;5027474;28;20081;-81
2022/09/19 10:49:36;;;;;;;9.90;1.80;;;15.20;99.90;;;;;;5011423;28;20093;-81
2022/09/19 10:52:04;;;;;;;10.02;1.75;;;15.30;99.90;;;;;;5000883;28;20132;-82
2022/09/19 10:54:42;;;;;;;10.82;1.73;;;15.30;99.90;;;;;;4999713;28;20041;-81
2022/09/19 10:57:44;;;;;;;18.52;2.50;;;15.40;99.90;;;;;;5022065;28;20093;-84
2022/09/19 11:00:31;;;;;;;14.80;2.40;;;15.80;99.90;;;;;;4985325;28;20053;-83
2022/09/19 11:03:05;;;;;;;14.52;2.20;;;15.80;99.90;;;;;;4994273;28;20037;-82
2022/09/19 11:05:33;;;;;;;17.25;2.90;;;15.70;99.90;;;;;;5001104;28;20444;-82
2022/09/19 11:08:00;;;;;;;18.50;3.10;;;15.80;99.90;;;;;;5006410;28;20045;-79
2022/09/19 11:10:39;;;;;;;19.05;2.67;;;16.00;99.90;;;;;;4979685;28;20606;-79
2022/09/19 11:13:22;;;;;;;14.02;2.88;;;16.10;99.90;;;;;;4993714;28;20124;-79
2022/09/19 11:16:19;;;;;;;17.92;2.80;;;16.30;99.90;;;;;;5000387;28;20196;-79
2022/09/19 11:19:08;;;;;;;21.65;2.85;;;16.80;99.90;;;;;;4994166;28;20100;-81
2022/09/19 11:22:12;;;;;;;14.98;2.47;;;17.00;99.90;;;;;;5001500;28;20111;-81
2022/09/19 11:24:55;;;;;;;10.32;1.83;;;16.80;99.90;;;;;;5022455;28;20045;-80
2022/09/19 11:27:36;;;;;;;15.65;2.42;;;16.60;99.90;;;;;;5020294;28;20045;-79
2022/09/19 11:30:25;;;;;;;8.93;1.83;;;16.60;99.90;;;;;;5014744;28;20048;-83
2022/09/19 11:33:09;;;;;;;12.93;2.35;;;16.80;99.90;;;;;;5002017;28;20045;-80
2022/09/19 11:35:44;;;;;;;13.77;2.10;;;16.90;99.90;;;;;;4995981;28;20077;-82
2022/09/19 11:38:34;;;;;;;12.48;1.63;;;17.00;99.90;;;;;;5015918;28;20111;-81
2022/09/19 11:41:28;;;;;;;16.48;2.28;;;17.20;99.90;;;;;;5018628;28;20037;-81
2022/09/19 11:44:35;;;;;;;15.57;2.65;;;17.00;99.90;;;;;;5022215;28;20048;-79
2022/09/19 11:47:27;;;;;;;12.95;1.90;;;16.80;99.90;;;;;;5022507;28;20032;-79
2022/09/19 11:50:32;;;;;;;13.95;2.45;;;16.90;99.90;;;;;;5023569;28;20418;-79
2022/09/19 11:53:18;;;;;;;16.05;2.35;;;17.20;99.90;;;;;;5017503;28;20115;-79
2022/09/19 11:55:58;;;;;;;13.43;2.03;;;17.70;99.90;;;;;;5039008;28;20045;-84
2022/09/19 11:58:34;;;;;;;13.07;2.08;;;18.00;99.90;;;;;;5001168;28;20137;-82
2022/09/19 12:01:18;;;;;;;12.52;2.30;;;17.60;99.90;;;;;;5009419;28;20147;-81
2022/09/19 12:03:52;;;;;;;12.27;1.92;;;17.30;99.90;;;;;;5020708;28;20048;-82
2022/09/19 12:06:55;;;;;;;12.55;1.85;;;16.90;99.90;;;;;;5007073;28;20041;-80
2022/09/19 12:09:33;;;;;;;14.88;1.88;;;16.80;99.90;;;;;;5007880;28;20056;-80
2022/09/19 12:12:13;;;;;;;14.95;2.97;;;17.20;99.90;;;;;;5014383;28;20064;-79
2022/09/19 12:14:43;;;;;;;15.95;2.42;;;17.80;99.90;;;;;;5011569;28;20037;-79
2022/09/19 12:17:18;;;;;;;19.42;2.85;;;17.80;99.90;;;;;;5014247;28;22203;-81
2022/09/19 12:19:49;;;;;;;17.88;2.70;;;17.40;99.90;;;;;;5000671;28;20132;-82
2022/09/19 12:22:30;;;;;;;9.90;2.45;;;17.00;99.90;;;;;;5027180;28;20053;-80
2022/09/19 12:25:19;;;;;;;15.38;2.60;;;17.20;99.90;;;;;;5008433;28;20406;-80
2022/09/19 12:27:59;;;;;;;16.33;2.65;;;17.60;99.90;;;;;;5017255;28;20120;-80
2022/09/19 12:30:32;;;;;;;13.40;2.00;;;17.50;99.90;;;;;;4999574;28;20427;-79
2022/09/19 12:33:32;;;;;;;13.85;2.20;;;17.70;99.90;;;;;;5023834;28;20553;-81
2022/09/19 12:36:04;;;;;;;15.65;2.17;;;17.90;99.90;;;;;;4942681;28;20460;-77
2022/09/19 12:39:08;;;;;;;14.38;2.28;;;17.60;99.90;;;;;;4943651;28;20050;-80
2022/09/19 12:41:46;;;;;;;15.52;2.22;;;17.20;99.90;;;;;;4939708;28;20089;-79
2022/09/19 12:44:35;;;;;;;14.27;2.00;;;16.90;99.90;;;;;;4959335;28;20090;-78
2022/09/19 12:47:38;;;;;;;12.57;2.30;;;16.70;99.90;;;;;;4929819;28;20141;-80
2022/09/19 12:50:29;;;;;;;15.45;2.83;;;17.30;99.90;;;;;;4941301;28;20458;-81
2022/09/19 12:53:21;;;;;;;15.15;2.63;;;17.90;99.90;;;;;;4962607;28;20050;-80
2022/09/19 12:56:22;;;;;;;11.57;2.03;;;18.60;99.90;;;;;;4947131;28;20067;-81
2022/09/19 12:59:10;;;;;;;9.38;1.88;;;18.90;99.90;;;;;;4907509;29;20059;-81
2022/09/19 13:01:52;;;;;;;11.93;2.60;;;18.40;99.90;;;;;;4930314;29;20035;-80
2022/09/19 13:04:28;;;;;;;17.83;2.70;;;17.90;99.90;;;;;;4924092;29;20056;-80
2022/09/19 13:07:04;;;;;;;15.00;2.60;;;18.10;99.90;;;;;;4906983;29;20048;-82
2022/09/19 13:10:00;;;;;;;10.48;2.00;;;18.10;99.90;;;;;;4908620;29;20062;-79
2022/09/19 13:12:44;;;;;;;12.30;2.25;;;17.80;99.90;;;;;;4969379;28;20547;-80
2022/09/19 13:15:18;;;;;;;15.00;2.42;;;17.30;99.90;;;;;;4969482;28;20193;-79
2022/09/19 13:23:32;;;;;;;9.20;1.98;;;16.50;99.90;;;;;;4946192;29;20500;-79
2022/09/19 13:26:25;;;;;;;7.90;1.52;;;16.50;99.90;;;;;;4930705;29;20084;-80
2022/09/19 13:28:57;;;;;;;9.65;1.90;;;16.60;99.90;;;;;;4913521;29;20058;-79
2022/09/19 13:31:30;;;;;;;10.98;2.00;;;16.90;99.90;;;;;;4925713;28;20640;-79
2022/09/19 13:33:59;;;;;;;11.95;2.08;;;16.90;99.90;;;;;;4934114;29;20419;-79
2022/09/19 13:36:25;;;;;;;4.05;1.00;;;16.60;99.90;;;;;;5010025;28;20152;-79
2022/09/19 13:38:56;;;;;;;8.43;1.40;;;16.90;99.90;;;;;;5006807;28;20116;-80